Time;durP1;ratioP1;P1;durP2;ratioP2;P2;SDS_P1;SDS_P2;PMS_P1;PMS_P2;Temp;Humidity;BMP_temperature;BMP_pressure;BME280_temperature;BME280_humidity;BME280_pressure;Samples;Min_cycle;Max_cycle;Signal;HPM_P1;HPM_P2
2024/04/21 00:01:20;;;;;;;6.28;3.45;;;;;;;7.65;59.65;101505.94;5369201;26;20027;-47
2024/04/21 00:03:48;;;;;;;7.00;3.08;;;;;;;7.64;59.75;101505.91;5355862;26;20054;-46
2024/04/21 00:06:16;;;;;;;10.90;3.90;;;;;;;7.63;59.81;101510.16;5366192;26;20015;-46
2024/04/21 00:08:44;;;;;;;7.35;3.72;;;;;;;7.64;59.91;101519.69;5365113;26;20017;-45
2024/04/21 00:11:11;;;;;;;6.43;3.13;;;;;;;7.63;59.92;101512.75;5323588;26;20017;-49
2024/04/21 00:13:39;;;;;;;11.60;3.17;;;;;;;7.64;60.19;101521.38;5361013;26;20020;-48
2024/04/21 00:16:09;;;;;;;6.70;3.50;;;;;;;7.63;60.08;101512.75;5351092;26;20019;-49
2024/04/21 00:18:38;;;;;;;4.75;3.13;;;;;;;7.63;60.20;101511.91;5360550;26;20005;-51
2024/04/21 00:21:06;;;;;;;4.43;3.05;;;;;;;7.62;60.19;101515.28;5372398;26;20087;-51
2024/04/21 00:23:36;;;;;;;7.30;2.97;;;;;;;7.59;60.41;101509.22;5358197;26;20546;-48
2024/04/21 00:26:04;;;;;;;7.60;3.63;;;;;;;7.59;60.42;101505.75;5367078;26;20037;-45
2024/04/21 00:28:32;;;;;;;8.48;2.63;;;;;;;7.59;60.52;101510.91;5362848;26;20016;-49
2024/04/21 00:30:59;;;;;;;7.82;2.63;;;;;;;7.59;60.32;101509.22;5363682;26;20361;-45
2024/04/21 00:33:27;;;;;;;11.10;1.98;;;;;;;7.58;60.61;101512.63;5359053;26;20580;-49
2024/04/21 00:35:55;;;;;;;8.23;2.70;;;;;;;7.57;60.58;101508.25;5360792;26;20409;-47
2024/04/21 00:38:23;;;;;;;10.23;2.55;;;;;;;7.56;60.69;101508.22;5373332;26;20084;-45
2024/04/21 00:40:50;;;;;;;5.85;2.92;;;;;;;7.55;60.65;101503.88;5358831;26;20409;-46
2024/04/21 00:43:18;;;;;;;4.93;2.28;;;;;;;7.54;60.75;101513.31;5357520;26;19997;-48
2024/04/21 00:45:49;;;;;;;5.13;2.63;;;;;;;7.52;60.92;101504.66;5349330;26;20013;-48
2024/04/21 00:48:18;;;;;;;5.47;2.85;;;;;;;7.52;60.92;101498.63;5323500;26;20445;-45
2024/04/21 00:50:48;;;;;;;7.97;2.90;;;;;;;7.51;61.17;101497.75;5331134;26;20014;-48
2024/04/21 00:53:18;;;;;;;6.10;3.15;;;;;;;7.50;60.74;101498.56;5326607;26;20015;-50
2024/04/21 00:55:46;;;;;;;4.07;2.08;;;;;;;7.49;61.07;101493.38;5376051;26;20016;-55
2024/04/21 00:58:15;;;;;;;8.75;2.67;;;;;;;7.45;61.27;101488.13;5371166;26;20013;-46
2024/04/21 01:00:42;;;;;;;5.85;2.72;;;;;;;7.43;61.38;101488.91;5369506;26;20000;-50
2024/04/21 01:03:09;;;;;;;4.22;3.15;;;;;;;7.42;61.30;101493.16;5356212;26;20023;-50
2024/04/21 01:05:36;;;;;;;6.13;2.47;;;;;;;7.41;61.45;101501.75;5359506;26;20492;-47
2024/04/21 01:08:05;;;;;;;2.25;1.10;;;;;;;7.39;61.27;101498.22;5328721;26;20542;-48
2024/04/21 01:10:32;;;;;;;5.00;2.55;;;;;;;7.37;61.47;101496.41;5335652;26;20017;-47
2024/04/21 01:12:59;;;;;;;5.45;2.42;;;;;;;7.36;61.62;101497.25;5361898;26;20075;-48
2024/04/21 01:15:25;;;;;;;3.05;2.33;;;;;;;7.32;61.67;101499.72;5371648;26;20010;-48
2024/04/21 01:17:52;;;;;;;5.28;2.85;;;;;;;7.32;61.66;101498.81;5367275;26;20016;-46
2024/04/21 01:20:21;;;;;;;6.88;1.20;;;;;;;7.32;61.64;101510.03;5357638;26;20429;-46
2024/04/21 01:22:49;;;;;;;4.10;2.80;;;;;;;7.32;61.35;101506.56;5368650;26;20032;-47
2024/04/21 01:25:16;;;;;;;6.82;2.88;;;;;;;7.31;61.62;101504.81;5369885;26;20339;-46
2024/04/21 01:27:43;;;;;;;4.90;3.15;;;;;;;7.30;61.81;101503.06;5369813;26;20428;-46
2024/04/21 01:30:11;;;;;;;16.25;3.67;;;;;;;7.29;61.63;101501.28;5371691;26;20004;-50
2024/04/21 01:32:39;;;;;;;8.45;1.00;;;;;;;7.29;61.66;101496.13;5353323;26;20371;-46
2024/04/21 01:35:06;;;;;;;5.15;2.53;;;;;;;7.28;61.66;101504.72;5369329;26;20016;-48
2024/04/21 01:37:35;;;;;;;5.25;1.40;;;;;;;7.27;61.61;101510.69;5371542;26;20520;-47
2024/04/21 01:40:04;;;;;;;10.73;2.90;;;;;;;7.27;61.73;101514.16;5361142;26;20019;-47
2024/04/21 01:42:31;;;;;;;9.88;2.22;;;;;;;7.26;61.98;101511.53;5366161;26;20000;-47
2024/04/21 01:44:57;;;;;;;6.25;2.80;;;;;;;7.25;62.14;101509.75;5360402;26;20015;-48
2024/04/21 01:47:24;;;;;;;3.92;2.33;;;;;;;7.23;61.96;101503.69;5368828;26;20035;-46
2024/04/21 01:49:51;;;;;;;6.65;2.22;;;;;;;7.22;62.33;101514.81;5371440;26;20043;-46
2024/04/21 01:52:18;;;;;;;7.95;3.33;;;;;;;7.17;62.21;101510.34;5372859;26;20081;-45
2024/04/21 01:54:45;;;;;;;3.75;3.17;;;;;;;7.17;62.38;101512.94;5348503;26;20013;-47
2024/04/21 01:57:11;;;;;;;6.90;2.88;;;;;;;7.15;62.48;101509.44;5334586;26;20031;-46
2024/04/21 01:59:38;;;;;;;8.23;2.47;;;;;;;7.13;62.37;101516.22;5319142;26;20121;-48
2024/04/21 02:02:05;;;;;;;15.88;3.38;;;;;;;7.13;62.79;101512.78;5329105;26;20013;-46
2024/04/21 02:04:32;;;;;;;4.72;2.75;;;;;;;7.09;63.01;101514.38;5350987;26;20045;-46
2024/04/21 02:06:58;;;;;;;5.68;2.83;;;;;;;7.09;62.74;101518.66;5323491;26;20097;-46
2024/04/21 02:09:25;;;;;;;6.68;2.55;;;;;;;7.05;63.17;101517.66;5322746;26;20016;-46
2024/04/21 02:11:52;;;;;;;7.05;2.55;;;;;;;6.99;63.42;101517.47;5329621;26;20013;-48
2024/04/21 02:14:19;;;;;;;11.02;2.63;;;;;;;6.98;63.46;101508.84;5369201;26;20012;-48
2024/04/21 02:16:45;;;;;;;5.88;2.47;;;;;;;6.98;63.29;101505.38;5362274;26;20014;-45
2024/04/21 02:19:12;;;;;;;4.03;3.35;;;;;;;6.94;63.61;101510.44;5363321;26;20016;-48
2024/04/21 02:21:39;;;;;;;3.17;2.40;;;;;;;6.93;63.15;101513.81;5366902;26;20038;-48
2024/04/21 02:24:06;;;;;;;6.03;3.17;;;;;;;6.91;63.50;101510.34;5365929;26;20010;-45
2024/04/21 02:26:33;;;;;;;7.97;2.30;;;;;;;6.91;63.04;101514.59;5372164;26;20556;-46
2024/04/21 02:28:59;;;;;;;6.85;3.35;;;;;;;6.88;63.44;101512.78;5361653;26;20005;-48
2024/04/21 02:31:27;;;;;;;6.00;2.47;;;;;;;6.86;62.93;101519.56;5368587;26;20081;-47
2024/04/21 02:33:53;;;;;;;4.53;1.70;;;;;;;6.84;62.98;101531.53;5365130;26;20315;-46
2024/04/21 02:36:20;;;;;;;7.32;2.88;;;;;;;6.82;62.97;101520.28;5361386;26;20004;-47
2024/04/21 02:38:47;;;;;;;5.60;1.20;;;;;;;6.79;62.87;101510.75;5353763;26;21549;-46
2024/04/21 02:41:14;;;;;;;8.57;3.17;;;;;;;6.79;63.02;101525.34;5362862;26;20524;-46
2024/04/21 02:43:41;;;;;;;3.33;2.10;;;;;;;6.78;62.84;101528.72;5357254;26;20001;-46
2024/04/21 02:46:08;;;;;;;4.28;2.70;;;;;;;6.77;63.03;101516.66;5364280;26;20015;-45
2024/04/21 02:48:34;;;;;;;6.22;2.38;;;;;;;6.74;63.02;101516.56;5354968;26;20004;-47
2024/04/21 02:51:01;;;;;;;5.72;2.60;;;;;;;6.74;63.02;101521.69;5366318;26;20130;-47
2024/04/21 02:53:28;;;;;;;6.22;2.05;;;;;;;6.71;63.08;101521.59;5358433;26;20400;-45
2024/04/21 02:55:55;;;;;;;10.68;2.60;;;;;;;6.71;63.16;101517.31;5359688;26;20017;-48
2024/04/21 02:58:21;;;;;;;14.65;2.83;;;;;;;6.69;63.19;101519.84;5364059;26;20012;-49
2024/04/21 03:00:48;;;;;;;9.73;2.45;;;;;;;6.68;62.96;101522.34;5362776;26;20415;-48
2024/04/21 03:03:15;;;;;;;8.55;2.65;;;;;;;6.67;63.10;101521.50;5367072;26;20008;-45
2024/04/21 03:05:42;;;;;;;8.68;2.35;;;;;;;6.65;63.11;101515.41;5367252;26;20352;-47
2024/04/21 03:08:09;;;;;;;4.82;3.00;;;;;;;6.61;63.19;101521.25;5368207;26;20012;-48
2024/04/21 03:10:35;;;;;;;4.45;2.92;;;;;;;6.58;63.11;101513.41;5370305;26;20012;-48
2024/04/21 03:13:02;;;;;;;6.50;3.05;;;;;;;6.54;63.28;101514.13;5371165;26;20390;-46
2024/04/21 03:15:29;;;;;;;7.70;2.47;;;;;;;6.48;63.37;101516.47;5365570;26;20004;-48
2024/04/21 03:17:56;;;;;;;6.28;2.22;;;;;;;6.42;63.20;101514.53;5372725;26;20020;-48
2024/04/21 03:20:22;;;;;;;7.88;1.88;;;;;;;6.36;63.32;101515.19;5359685;26;20008;-50
2024/04/21 03:22:49;;;;;;;8.35;2.13;;;;;;;6.28;63.64;101511.41;5368187;26;20622;-50
2024/04/21 03:25:16;;;;;;;6.05;2.53;;;;;;;6.23;63.26;101512.94;5372262;26;20020;-46
2024/04/21 03:27:43;;;;;;;7.53;3.10;;;;;;;6.16;63.57;101512.72;5370661;26;20011;-49
2024/04/21 03:30:10;;;;;;;11.57;2.25;;;;;;;6.09;63.40;101515.88;5363432;26;20032;-49
2024/04/21 03:32:36;;;;;;;7.82;2.58;;;;;;;6.04;63.80;101522.50;5319306;26;20025;-53
2024/04/21 03:35:04;;;;;;;7.80;2.88;;;;;;;5.97;63.93;101521.38;5365912;26;20023;-49
2024/04/21 03:37:30;;;;;;;8.68;2.30;;;;;;;5.91;64.00;101522.00;5359262;26;20036;-46
2024/04/21 03:40:00;;;;;;;3.65;2.40;;;;;;;5.88;64.16;101527.00;5361629;26;20017;-47
2024/04/21 03:42:27;;;;;;;4.45;2.40;;;;;;;5.81;64.18;101519.84;5362855;26;20012;-50
2024/04/21 03:44:54;;;;;;;11.02;1.50;;;;;;;5.76;64.40;101519.69;5367301;26;20424;-45
2024/04/21 03:47:21;;;;;;;3.17;2.40;;;;;;;5.71;64.62;101522.88;5335973;26;20731;-48
2024/04/21 03:49:48;;;;;;;9.10;2.55;;;;;;;5.66;64.83;101531.28;5331018;26;20025;-48
2024/04/21 03:52:15;;;;;;;4.82;1.85;;;;;;;5.63;65.11;101525.13;5342157;26;20015;-47
2024/04/21 03:54:42;;;;;;;6.72;2.55;;;;;;;5.57;65.07;101525.75;5360423;26;20008;-48
2024/04/21 03:57:08;;;;;;;5.93;2.33;;;;;;;5.56;65.13;101529.13;5371996;26;20016;-46
2024/04/21 03:59:35;;;;;;;4.28;2.35;;;;;;;5.54;65.19;101525.59;5363908;26;20012;-45
2024/04/21 04:02:02;;;;;;;4.35;2.53;;;;;;;5.52;65.08;101516.97;5362214;26;20004;-46
2024/04/21 04:04:29;;;;;;;5.53;2.17;;;;;;;5.47;65.13;101518.50;5357698;26;20429;-46
2024/04/21 04:06:56;;;;;;;4.45;2.40;;;;;;;5.44;65.44;101513.22;5360719;26;20011;-45
2024/04/21 04:09:23;;;;;;;3.38;2.40;;;;;;;5.40;65.28;101518.22;5358696;26;20023;-49
2024/04/21 04:11:50;;;;;;;5.93;2.05;;;;;;;5.36;65.54;101516.34;5358524;26;20069;-47
2024/04/21 04:14:17;;;;;;;5.15;2.22;;;;;;;5.36;65.66;101521.47;5365039;26;20049;-45
2024/04/21 04:16:43;;;;;;;4.95;2.55;;;;;;;5.31;65.65;101511.81;5360442;26;20458;-48
2024/04/21 04:19:10;;;;;;;6.18;2.10;;;;;;;5.28;66.04;101515.13;5365630;26;20007;-45
2024/04/21 04:21:37;;;;;;;5.57;0.93;;;;;;;5.27;66.18;101526.22;5363399;26;20782;-47
2024/04/21 04:24:04;;;;;;;6.55;2.45;;;;;;;5.25;65.72;101525.28;5364104;26;20403;-46
2024/04/21 04:26:31;;;;;;;5.18;2.63;;;;;;;5.22;66.23;101525.13;5367465;26;20051;-50
2024/04/21 04:28:58;;;;;;;6.38;2.42;;;;;;;5.20;66.38;101532.75;5368670;26;20012;-48
2024/04/21 04:31:24;;;;;;;4.15;2.55;;;;;;;5.19;66.19;101530.13;5363802;26;20419;-49
2024/04/21 04:33:51;;;;;;;5.72;2.35;;;;;;;5.14;66.32;101528.25;5367816;26;20000;-46
2024/04/21 04:36:18;;;;;;;2.83;2.47;;;;;;;5.12;66.43;101529.88;5370917;26;20047;-46
2024/04/21 04:38:45;;;;;;;3.10;2.20;;;;;;;5.07;66.99;101528.78;5358331;26;20573;-49
2024/04/21 04:41:12;;;;;;;5.20;2.78;;;;;;;5.06;66.94;101527.03;5328003;26;20517;-47
2024/04/21 04:43:39;;;;;;;2.42;2.00;;;;;;;5.02;67.25;101527.72;5323115;26;20002;-48
2024/04/21 04:46:05;;;;;;;5.10;2.47;;;;;;;5.03;67.00;101541.44;5328978;26;20009;-47
2024/04/21 04:48:32;;;;;;;3.83;1.50;;;;;;;4.96;67.50;101540.31;5341236;26;20551;-46
2024/04/21 04:51:01;;;;;;;6.28;2.63;;;;;;;4.94;67.66;101537.66;5360657;26;20050;-47
2024/04/21 04:53:28;;;;;;;6.75;3.03;;;;;;;4.92;67.31;101543.50;5372926;26;20464;-46
2024/04/21 04:55:55;;;;;;;5.50;2.40;;;;;;;4.85;68.12;101545.81;5354976;26;20438;-45
2024/04/21 04:58:22;;;;;;;5.05;2.25;;;;;;;4.86;67.50;101545.00;5354846;26;20007;-48
2024/04/21 05:00:48;;;;;;;5.03;2.60;;;;;;;4.83;67.66;101555.13;5363519;26;20071;-46
2024/04/21 05:03:16;;;;;;;7.22;1.98;;;;;;;4.83;67.94;101550.00;5363485;26;20458;-46
2024/04/21 05:05:42;;;;;;;4.75;1.88;;;;;;;4.79;68.17;101540.41;5365356;26;20000;-47
2024/04/21 05:08:09;;;;;;;6.28;0.68;;;;;;;4.77;68.33;101554.88;5356670;26;20769;-47
2024/04/21 05:10:36;;;;;;;3.15;2.00;;;;;;;4.75;68.35;101556.47;5360992;26;20012;-48
2024/04/21 05:13:03;;;;;;;2.80;2.28;;;;;;;4.76;68.31;101558.22;5339868;26;20564;-48
2024/04/21 05:15:30;;;;;;;5.18;3.35;;;;;;;4.73;68.76;101565.81;5327690;26;20023;-47
2024/04/21 05:17:57;;;;;;;9.70;3.70;;;;;;;4.73;68.50;101563.25;5328369;26;20146;-47
2024/04/21 05:20:24;;;;;;;2.97;1.05;;;;;;;4.74;68.44;101555.63;5365376;26;20472;-46
2024/04/21 05:22:51;;;;;;;2.03;1.77;;;;;;;4.72;68.28;101554.66;5357554;26;20018;-47
2024/04/21 05:25:18;;;;;;;4.38;2.45;;;;;;;4.74;67.88;101559.84;5361624;26;20012;-46
2024/04/21 05:27:45;;;;;;;4.18;2.35;;;;;;;4.71;68.48;101554.59;5342570;26;20078;-46
2024/04/21 05:30:12;;;;;;;6.55;3.25;;;;;;;4.71;68.96;101570.88;5337777;26;20001;-48
2024/04/21 05:32:38;;;;;;;3.92;2.25;;;;;;;4.69;69.02;101576.75;5354550;26;20016;-48
2024/04/21 05:35:09;;;;;;;9.18;2.55;;;;;;;4.70;68.89;101568.22;5356306;26;20004;-51
2024/04/21 05:37:35;;;;;;;5.38;2.92;;;;;;;4.71;68.95;101572.56;5359344;26;20085;-49
2024/04/21 05:40:04;;;;;;;2.33;2.13;;;;;;;4.73;69.16;101578.66;5367241;26;20012;-48
2024/04/21 05:42:31;;;;;;;3.53;1.83;;;;;;;4.75;68.58;101571.88;5355158;26;20008;-47
2024/04/21 05:44:57;;;;;;;2.42;1.65;;;;;;;4.75;69.08;101572.78;5340332;26;20039;-45
2024/04/21 05:47:24;;;;;;;3.55;2.38;;;;;;;4.76;69.26;101573.63;5359292;26;20014;-49
2024/04/21 05:49:51;;;;;;;3.08;2.08;;;;;;;4.77;69.24;101575.41;5362684;26;20021;-45
2024/04/21 05:52:18;;;;;;;2.10;1.80;;;;;;;4.74;69.68;101568.44;5361299;26;20004;-46
2024/04/21 05:54:45;;;;;;;2.28;1.58;;;;;;;4.80;69.15;101575.53;5368203;26;20000;-46
2024/04/21 05:57:12;;;;;;;3.90;2.22;;;;;;;4.78;69.65;101582.28;5357125;26;20012;-49
2024/04/21 05:59:39;;;;;;;3.00;2.33;;;;;;;4.79;69.55;101584.03;5369920;26;20015;-46
2024/04/21 06:02:05;;;;;;;2.67;2.10;;;;;;;4.80;69.60;101583.22;5355103;26;20011;-45
2024/04/21 06:04:32;;;;;;;3.42;2.67;;;;;;;4.80;69.60;101588.34;5358358;26;20004;-46
2024/04/21 06:06:59;;;;;;;3.50;2.17;;;;;;;4.86;69.42;101591.22;5356724;26;20329;-61
2024/04/21 06:09:26;;;;;;;4.50;2.30;;;;;;;4.92;68.87;101590.63;5365451;26;20000;-49
2024/04/21 06:11:53;;;;;;;5.43;2.33;;;;;;;4.95;68.91;101595.00;5356835;26;20478;-46
2024/04/21 06:14:20;;;;;;;6.50;3.28;;;;;;;4.99;68.82;101604.63;5355765;26;20454;-50
2024/04/21 06:16:47;;;;;;;3.05;2.28;;;;;;;5.01;69.07;101605.56;5368093;26;20322;-48
2024/04/21 06:19:13;;;;;;;6.00;2.42;;;;;;;5.03;68.82;101609.06;5364168;26;20091;-50
2024/04/21 06:21:40;;;;;;;9.35;2.53;;;;;;;5.10;68.53;101605.97;5366490;26;20011;-44
2024/04/21 06:24:07;;;;;;;3.30;2.03;;;;;;;5.12;68.23;101619.78;5362870;26;20017;-46
2024/04/21 06:26:34;;;;;;;5.25;2.85;;;;;;;5.17;68.47;101616.53;5367889;26;20016;-48
2024/04/21 06:29:00;;;;;;;6.50;2.67;;;;;;;5.20;68.32;101617.53;5359714;26;20055;-48
2024/04/21 06:31:27;;;;;;;5.55;2.42;;;;;;;5.24;68.38;101619.44;5363890;26;19996;-47
2024/04/21 06:33:54;;;;;;;7.15;2.47;;;;;;;5.30;67.91;101616.25;5363291;26;20052;-46
2024/04/21 06:36:21;;;;;;;3.97;2.50;;;;;;;5.36;68.09;101624.25;5355498;26;20005;-48
2024/04/21 06:38:49;;;;;;;6.00;2.63;;;;;;;5.40;68.00;101627.81;5313960;26;20510;-47
2024/04/21 06:41:15;;;;;;;8.52;2.92;;;;;;;5.55;67.85;101625.06;5355424;26;20005;-46
2024/04/21 06:43:42;;;;;;;4.82;2.72;;;;;;;6.02;67.39;101621.88;5363204;26;20078;-48
2024/04/21 06:46:09;;;;;;;5.65;2.38;;;;;;;6.52;66.87;101618.75;5364635;26;20063;-49
2024/04/21 06:48:36;;;;;;;6.35;3.03;;;;;;;6.93;66.12;101616.84;5359871;26;20012;-48
2024/04/21 06:51:03;;;;;;;3.47;2.33;;;;;;;7.41;64.84;101609.13;5363321;26;20029;-49
2024/04/21 06:53:30;;;;;;;9.52;2.60;;;;;;;7.81;64.44;101620.81;5359989;26;20016;-50
2024/04/21 06:56:01;;;;;;;4.90;2.38;;;;;;;8.14;63.38;101614.13;5367053;26;20338;-48
2024/04/21 06:58:27;;;;;;;8.73;3.33;;;;;;;8.43;62.30;101619.38;5365931;26;20358;-46
2024/04/21 07:00:54;;;;;;;4.55;0.73;;;;;;;8.73;62.05;101621.19;5357392;26;21853;-47
2024/04/21 07:03:21;;;;;;;2.92;1.85;;;;;;;9.05;61.32;101617.78;5353481;26;20027;-47
2024/04/21 07:05:48;;;;;;;4.82;2.42;;;;;;;9.26;59.83;101627.88;5360534;26;20017;-49
2024/04/21 07:08:15;;;;;;;5.82;3.00;;;;;;;9.49;59.54;101629.34;5359624;26;20019;-46
2024/04/21 07:10:42;;;;;;;5.72;2.45;;;;;;;9.74;59.32;101625.72;5357712;26;20018;-46
2024/04/21 07:13:11;;;;;;;3.42;2.33;;;;;;;9.95;57.99;101624.50;5367173;26;20094;-48
2024/04/21 07:15:38;;;;;;;8.18;2.72;;;;;;;10.18;57.56;101631.97;5357913;26;20014;-46
2024/04/21 07:18:05;;;;;;;3.58;2.72;;;;;;;10.38;57.01;101628.97;5365239;26;20051;-47
2024/04/21 07:20:32;;;;;;;3.00;2.35;;;;;;;10.57;56.49;101629.44;5368115;26;20004;-47
2024/04/21 07:22:59;;;;;;;5.25;1.98;;;;;;;10.68;55.80;101622.78;5371218;26;20073;-45
2024/04/21 07:25:26;;;;;;;2.72;2.13;;;;;;;10.94;55.40;101619.88;5368126;26;20007;-48
2024/04/21 07:27:54;;;;;;;3.35;3.08;;;;;;;11.01;54.02;101621.75;5365101;26;20754;-49
2024/04/21 07:30:21;;;;;;;4.20;2.25;;;;;;;11.23;54.05;101627.38;5362673;26;20012;-49
2024/04/21 07:32:47;;;;;;;6.20;1.75;;;;;;;11.45;53.81;101638.16;5360801;26;20016;-47
2024/04/21 07:35:15;;;;;;;2.97;2.10;;;;;;;11.75;53.95;101636.97;5356131;26;20020;-48
2024/04/21 07:37:42;;;;;;;2.85;2.53;;;;;;;11.99;53.35;101640.00;5356760;26;20005;-47
2024/04/21 07:40:09;;;;;;;6.07;1.90;;;;;;;12.11;52.47;101640.22;5356785;26;20015;-48
2024/04/21 07:42:37;;;;;;;4.55;2.67;;;;;;;12.33;52.64;101645.78;5360780;26;20008;-48
2024/04/21 07:45:04;;;;;;;3.05;2.17;;;;;;;12.58;51.97;101641.84;5358526;26;20004;-50
2024/04/21 07:47:32;;;;;;;3.72;0.93;;;;;;;12.77;51.56;101642.06;5363554;26;20750;-48
2024/04/21 07:49:59;;;;;;;3.00;0.47;;;;;;;12.98;50.96;101646.69;5366396;26;20384;-48
2024/04/21 07:52:26;;;;;;;2.45;1.55;;;;;;;13.08;49.93;101652.88;5362285;26;20376;-48
2024/04/21 07:54:52;;;;;;;2.47;1.92;;;;;;;13.05;49.16;101654.56;5370735;26;20000;-48
2024/04/21 07:57:19;;;;;;;7.07;2.88;;;;;;;13.15;48.96;101647.75;5363328;26;20004;-50
2024/04/21 07:59:46;;;;;;;3.00;1.88;;;;;;;13.30;49.23;101657.47;5358767;26;20708;-49
2024/04/21 08:02:13;;;;;;;3.25;2.35;;;;;;;13.37;48.56;101657.56;5366668;26;20004;-49
2024/04/21 08:04:40;;;;;;;3.78;2.28;;;;;;;13.53;48.78;101652.56;5364313;26;20071;-46
2024/04/21 08:07:06;;;;;;;6.38;4.22;;;;;;;13.57;47.67;101649.13;5365782;26;20000;-48
2024/04/21 08:09:34;;;;;;;7.78;2.20;;;;;;;13.56;47.51;101654.31;5356239;26;20082;-47
2024/04/21 08:12:01;;;;;;;4.60;2.17;;;;;;;13.43;47.26;101659.38;5355035;26;20012;-47
2024/04/21 08:14:28;;;;;;;3.88;2.47;;;;;;;13.52;47.09;101648.22;5349351;26;20016;-48
2024/04/21 08:16:56;;;;;;;4.88;2.33;;;;;;;13.16;46.73;101654.69;5365573;26;20017;-51
2024/04/21 08:19:23;;;;;;;4.00;2.30;;;;;;;12.81;47.18;101654.28;5367724;26;20015;-46
2024/04/21 08:21:50;;;;;;;4.80;2.67;;;;;;;13.03;48.41;101659.75;5368965;26;20036;-51
2024/04/21 08:24:17;;;;;;;4.75;2.47;;;;;;;13.18;48.06;101658.22;5366631;26;20120;-52
2024/04/21 08:26:44;;;;;;;6.22;2.17;;;;;;;13.33;47.65;101657.50;5365418;26;20509;-51
2024/04/21 08:29:10;;;;;;;4.20;2.15;;;;;;;13.32;47.08;101656.66;5368055;26;20099;-47
2024/04/21 08:31:37;;;;;;;4.00;3.00;;;;;;;12.92;47.07;101656.13;5351646;26;20086;-45
2024/04/21 08:34:04;;;;;;;6.80;2.65;;;;;;;12.72;47.27;101655.03;5358974;26;20802;-48
2024/04/21 08:36:31;;;;;;;4.10;2.58;;;;;;;12.35;47.98;101657.06;5357787;26;20012;-46
2024/04/21 08:38:58;;;;;;;3.72;2.63;;;;;;;12.10;48.46;101654.06;5369512;26;20016;-50
2024/04/21 08:41:29;;;;;;;2.63;2.28;;;;;;;12.06;48.97;101650.53;5368411;26;20019;-50
2024/04/21 08:43:58;;;;;;;3.60;0.85;;;;;;;11.99;49.50;101651.25;5353189;26;20471;-47
2024/04/21 08:46:24;;;;;;;5.75;2.40;;;;;;;11.96;49.67;101656.41;5363589;26;20018;-51
2024/04/21 08:48:52;;;;;;;5.53;2.58;;;;;;;12.00;49.60;101658.22;5368559;26;20043;-49
2024/04/21 08:51:20;;;;;;;4.43;2.08;;;;;;;11.87;49.55;101649.31;5366886;26;20005;-48
2024/04/21 08:53:47;;;;;;;4.22;2.35;;;;;;;11.85;49.57;101647.56;5367231;26;20028;-46
2024/04/21 08:56:17;;;;;;;6.43;2.47;;;;;;;11.91;49.13;101642.44;5364880;26;20036;-49
2024/04/21 08:58:48;;;;;;;5.82;2.38;;;;;;;11.87;49.54;101653.63;5365960;26;20090;-46
2024/04/21 09:01:18;;;;;;;4.43;2.80;;;;;;;11.76;49.24;101640.47;5361024;26;20118;-47
2024/04/21 09:03:48;;;;;;;5.78;2.15;;;;;;;11.68;49.21;101640.31;5360019;26;20008;-47
2024/04/21 09:06:16;;;;;;;2.90;2.63;;;;;;;11.81;48.92;101639.72;5370185;26;20004;-46
2024/04/21 09:08:43;;;;;;;3.30;1.98;;;;;;;11.67;48.33;101638.56;5368345;26;20842;-49
2024/04/21 09:11:11;;;;;;;4.82;1.95;;;;;;;11.55;49.12;101640.09;5374178;26;20140;-51
2024/04/21 09:13:37;;;;;;;1.95;1.85;;;;;;;11.24;49.08;101644.69;5362129;26;20859;-47
2024/04/21 09:16:04;;;;;;;10.07;3.15;;;;;;;11.05;49.40;101644.28;5371066;26;20023;-48
2024/04/21 09:18:31;;;;;;;3.67;2.75;;;;;;;10.98;49.82;101647.59;5370379;26;20089;-46
2024/04/21 09:20:59;;;;;;;4.88;1.35;;;;;;;11.09;50.14;101650.44;5370498;26;20417;-46
2024/04/21 09:23:26;;;;;;;4.30;2.42;;;;;;;11.40;49.41;101651.06;5373168;26;20330;-47
2024/04/21 09:25:52;;;;;;;2.30;2.10;;;;;;;11.92;48.75;101654.59;5373465;26;20345;-47
2024/04/21 09:28:19;;;;;;;3.03;2.17;;;;;;;12.32;47.41;101652.69;5361935;26;20043;-47
2024/04/21 09:30:46;;;;;;;3.45;2.38;;;;;;;12.44;47.07;101651.13;5358273;26;20044;-47
2024/04/21 09:33:13;;;;;;;3.50;2.40;;;;;;;12.42;47.33;101645.91;5366870;26;20059;-48
2024/04/21 09:35:40;;;;;;;3.65;2.55;;;;;;;12.26;47.58;101654.31;5358233;26;20018;-46
2024/04/21 09:38:07;;;;;;;3.78;2.58;;;;;;;12.23;47.90;101651.69;5364500;26;20008;-46
2024/04/21 09:40:37;;;;;;;4.50;2.13;;;;;;;12.36;48.29;101660.53;5365442;26;20022;-52
2024/04/21 09:43:06;;;;;;;5.65;2.92;;;;;;;12.37;47.95;101657.09;5357250;26;20052;-47
2024/04/21 09:45:34;;;;;;;2.95;2.58;;;;;;;12.57;47.07;101654.81;5363503;26;20014;-49
2024/04/21 09:48:01;;;;;;;3.85;1.95;;;;;;;12.84;46.29;101656.91;5361253;26;20022;-44
2024/04/21 09:50:30;;;;;;;2.03;1.83;;;;;;;13.00;45.26;101659.72;5363300;26;20032;-48
2024/04/21 09:52:57;;;;;;;4.43;2.30;;;;;;;13.07;45.02;101660.69;5334123;26;20008;-47
2024/04/21 09:55:25;;;;;;;4.10;3.13;;;;;;;13.09;44.01;101654.66;5325654;26;20044;-46
2024/04/21 09:57:59;;;;;;;15.13;7.15;;;;;;;12.91;43.91;101664.78;5325192;26;20095;-45
2024/04/21 10:00:30;;;;;;;17.45;6.95;;;;;;;12.93;44.31;101663.06;5330519;26;19997;-48
2024/04/21 10:03:02;;;;;;;6.32;4.85;;;;;;;13.03;44.47;101664.97;5324434;26;20013;-48
2024/04/21 10:05:30;;;;;;;7.10;4.32;;;;;;;12.93;44.42;101669.16;5361112;26;20000;-48
2024/04/21 10:07:59;;;;;;;3.58;2.55;;;;;;;12.80;45.08;101657.72;5359384;26;20001;-45
2024/04/21 10:10:29;;;;;;;11.85;7.18;;;;;;;12.93;45.60;101668.28;5362713;26;20075;-48
2024/04/21 10:12:57;;;;;;;19.45;9.90;;;;;;;13.24;45.78;101664.34;5366442;26;20078;-50
2024/04/21 10:15:26;;;;;;;4.13;2.55;;;;;;;13.35;44.75;101664.47;5363273;26;20869;-48
2024/04/21 10:17:54;;;;;;;6.47;4.40;;;;;;;13.34;44.39;101662.72;5366586;26;20012;-45
2024/04/21 10:20:37;;;;;;;6.43;4.20;;;;;;;13.20;44.12;101664.28;5367050;26;20019;-48
2024/04/21 10:23:10;;;;;;;6.50;2.88;;;;;;;13.02;44.74;101658.00;5356975;26;20004;-48
2024/04/21 10:25:40;;;;;;;5.78;3.40;;;;;;;12.76;44.83;101662.88;5361120;26;20566;-46
2024/04/21 10:28:08;;;;;;;;;;;;;;;12.56;44.46;101666.91;5367049;26;20006;-46
2024/04/21 10:30:36;;;;;;;5.78;3.22;;;;;;;12.62;44.67;101667.84;5367735;26;19926;-47
2024/04/21 10:33:06;;;;;;;8.40;3.15;;;;;;;12.66;44.86;101659.25;5359386;26;20001;-51
2024/04/21 10:35:34;;;;;;;;;;;;;;;12.64;44.74;101660.97;5351625;26;20663;-48
2024/04/21 10:38:05;;;;;;;5.97;2.65;;;;;;;12.73;45.71;101659.34;5353863;26;19995;-45
2024/04/21 10:40:35;;;;;;;9.13;3.03;;;;;;;12.75;45.55;101659.38;5355198;26;20012;-48
2024/04/21 10:43:03;;;;;;;4.65;3.20;;;;;;;12.96;45.35;101663.13;5354430;26;20509;-47
2024/04/21 10:45:32;;;;;;;2.92;2.72;;;;;;;13.22;45.09;101653.06;5354377;26;20024;-47
2024/04/21 10:47:59;;;;;;;6.55;2.47;;;;;;;13.25;45.13;101654.81;5357718;26;20008;-49
2024/04/21 10:50:26;;;;;;;3.63;2.38;;;;;;;13.23;45.14;101656.53;5355995;26;20001;-46
2024/04/21 10:52:54;;;;;;;4.13;2.72;;;;;;;12.94;44.20;101650.09;5354635;26;20753;-45
2024/04/21 10:55:20;;;;;;;3.08;2.22;;;;;;;12.89;44.93;101650.88;5353665;26;20097;-50
2024/04/21 10:57:47;;;;;;;5.60;1.50;;;;;;;12.90;44.42;101652.66;5357590;26;20715;-47
2024/04/21 11:00:15;;;;;;;4.68;2.72;;;;;;;12.84;44.39;101643.91;5353317;26;20077;-45
2024/04/21 11:02:41;;;;;;;3.88;2.15;;;;;;;12.78;43.94;101651.63;5353517;26;20624;-47
2024/04/21 11:05:09;;;;;;;5.78;3.40;;;;;;;12.83;44.59;101652.56;5356026;26;20015;-50
2024/04/21 11:07:36;;;;;;;5.00;3.45;;;;;;;12.83;44.10;101652.56;5358235;26;20012;-51
2024/04/21 11:10:04;;;;;;;6.75;3.05;;;;;;;12.78;44.13;101654.22;5352457;26;20085;-46
2024/04/21 11:12:32;;;;;;;4.95;3.45;;;;;;;12.75;44.49;101654.19;5358841;26;20939;-46
2024/04/21 11:14:59;;;;;;;6.85;3.20;;;;;;;12.94;44.74;101654.44;5353988;26;20029;-48
2024/04/21 11:17:27;;;;;;;4.28;2.85;;;;;;;13.05;44.63;101659.78;5357821;26;20079;-50
2024/04/21 11:19:54;;;;;;;3.22;0.98;;;;;;;13.10;44.90;101651.19;5352170;26;20351;-48
2024/04/21 11:22:21;;;;;;;4.80;2.58;;;;;;;12.99;44.10;101665.78;5355930;26;20004;-47
2024/04/21 11:24:48;;;;;;;6.05;2.67;;;;;;;12.92;43.98;101656.13;5359582;26;20354;-47
2024/04/21 11:27:16;;;;;;;4.03;2.88;;;;;;;12.83;44.51;101656.88;5367994;26;20086;-50
2024/04/21 11:29:47;;;;;;;7.90;2.92;;;;;;;12.80;44.06;101657.72;5358634;26;20521;-47